Time;durP1;ratioP1;P1;durP2;ratioP2;P2;SDS_P1;SDS_P2;PMS_P1;PMS_P2;Temp;Humidity;BMP_temperature;BMP_pressure;BME280_temperature;BME280_humidity;BME280_pressure;Samples;Min_cycle;Max_cycle;Signal;HPM_P1;HPM_P2
2022/05/19 00:00:25;;;;;;;0.43;0.43;;;;;;;10.98;65.78;100759.25;4978135;28;20062;-62
2022/05/19 00:03:04;;;;;;;0.40;0.40;;;;;;;10.86;65.55;100751.41;4978124;28;20138;-62
2022/05/19 00:05:44;;;;;;;;;;;;;;;10.68;66.07;100752.84;4978609;28;20161;-64
2022/05/19 00:08:13;;;;;;;0.70;0.70;;;;;;;10.58;66.53;100758.63;4978299;28;19949;-63
2022/05/19 00:10:46;;;;;;;0.60;0.60;;;;;;;10.62;66.68;100757.00;4977792;28;20051;-62
2022/05/19 00:13:15;;;;;;;0.47;0.47;;;;;;;10.49;67.05;100735.50;4978567;28;20077;-64
2022/05/19 00:15:44;;;;;;;0.53;0.53;;;;;;;10.61;66.75;100761.22;4978100;28;20378;-62
2022/05/19 00:18:23;;;;;;;0.70;0.70;;;;;;;10.56;67.22;100757.72;4977653;28;20149;-64
2022/05/19 00:21:02;;;;;;;1.42;1.33;;;;;;;10.66;66.66;100753.63;4960746;28;20055;-64
2022/05/19 00:23:40;;;;;;;0.47;0.47;;;;;;;10.69;66.79;100754.56;4977761;28;20085;-62
2022/05/19 00:26:10;;;;;;;0.40;0.40;;;;;;;10.66;66.40;100754.50;4977925;28;20757;-64
2022/05/19 00:28:50;;;;;;;0.40;0.40;;;;;;;10.65;67.04;100747.66;4977533;28;20058;-64
2022/05/19 00:31:22;;;;;;;0.50;0.50;;;;;;;10.68;66.52;100750.28;4977565;28;20106;-64
2022/05/19 00:33:53;;;;;;;0.50;0.50;;;;;;;10.67;66.42;100760.47;4977532;28;20078;-62
2022/05/19 00:36:22;;;;;;;0.77;0.68;;;;;;;10.70;66.43;100766.47;4977759;28;20054;-63
2022/05/19 00:38:54;;;;;;;1.07;0.97;;;;;;;10.72;66.18;100754.59;4977722;28;20421;-63
2022/05/19 00:41:33;;;;;;;0.50;0.50;;;;;;;10.67;65.81;100758.78;4977319;28;20055;-62
2022/05/19 00:44:05;;;;;;;0.55;0.55;;;;;;;10.58;65.97;100755.22;4977612;28;20489;-64
2022/05/19 00:46:43;;;;;;;0.50;0.50;;;;;;;10.57;66.66;100767.13;4977875;28;20063;-62
2022/05/19 00:49:21;;;;;;;0.50;0.50;;;;;;;10.47;66.14;100752.47;4977407;28;20047;-62
2022/05/19 00:52:06;;;;;;;0.50;0.50;;;;;;;10.34;67.19;100745.44;4977178;28;20043;-64
2022/05/19 00:54:40;;;;;;;1.02;0.98;;;;;;;10.31;67.30;100752.19;4977149;28;20114;-63
2022/05/19 00:57:18;;;;;;;0.30;0.30;;;;;;;10.35;67.18;100743.75;4977358;28;20061;-64
2022/05/19 01:00:04;;;;;;;0.43;0.43;;;;;;;10.24;67.49;100758.91;4977323;28;20058;-62
2022/05/19 01:02:41;;;;;;;0.52;0.47;;;;;;;10.18;67.89;100753.66;4977214;28;20493;-63
2022/05/19 01:05:35;;;;;;;0.60;0.60;;;;;;;10.21;67.99;100748.63;4976941;28;20063;-64
2022/05/19 01:08:12;;;;;;;0.40;0.40;;;;;;;10.23;68.06;100752.06;4977251;28;20120;-64
2022/05/19 01:10:41;;;;;;;0.50;0.50;;;;;;;10.24;67.26;100755.47;4976545;28;20055;-65
2022/05/19 01:13:12;;;;;;;;;;;;;;;10.26;67.77;100752.13;4977239;28;20489;-63
2022/05/19 01:15:50;;;;;;;0.50;0.50;;;;;;;10.18;67.93;100732.38;4976738;28;19972;-64
2022/05/19 01:18:29;;;;;;;0.30;0.30;;;;;;;10.27;67.86;100748.72;4976755;28;20121;-64
2022/05/19 01:21:09;;;;;;;0.32;0.32;;;;;;;10.26;67.43;100752.13;4976586;28;20082;-64
2022/05/19 01:24:03;;;;;;;0.47;0.47;;;;;;;10.26;67.46;100757.22;4976874;28;20097;-64
2022/05/19 01:26:53;;;;;;;0.57;0.57;;;;;;;10.27;67.19;100753.81;4976886;28;20070;-62
2022/05/19 01:29:25;;;;;;;0.40;0.40;;;;;;;10.29;66.85;100747.09;4976462;28;20065;-63
2022/05/19 01:32:03;;;;;;;0.40;0.40;;;;;;;10.19;66.67;100745.19;4976675;28;20142;-64
2022/05/19 01:34:35;;;;;;;0.50;0.50;;;;;;;10.24;67.23;100750.38;4976446;28;20097;-64
2022/05/19 01:37:04;;;;;;;0.30;0.30;;;;;;;10.20;66.66;100757.09;4976342;28;20051;-64
2022/05/19 01:39:58;;;;;;;0.60;0.60;;;;;;;10.21;66.58;100756.28;4959050;28;20054;-63
2022/05/19 01:42:40;;;;;;;0.40;0.40;;;;;;;10.20;66.61;100756.25;4976200;28;20171;-62
2022/05/19 01:45:28;;;;;;;0.40;0.40;;;;;;;10.14;66.27;100757.00;4976609;28;20055;-64
2022/05/19 01:48:01;;;;;;;0.32;0.32;;;;;;;10.16;67.09;100759.56;4975640;28;20138;-62
2022/05/19 01:50:39;;;;;;;0.50;0.50;;;;;;;10.10;66.42;100760.31;4976085;28;20068;-62
2022/05/19 01:53:25;;;;;;;0.43;0.43;;;;;;;10.05;67.29;100761.91;4976349;28;20480;-62
2022/05/19 01:56:05;;;;;;;0.35;0.35;;;;;;;10.06;66.46;100759.38;4976275;28;20489;-62
2022/05/19 01:58:45;;;;;;;0.88;0.88;;;;;;;10.08;66.15;100756.84;4976244;28;20501;-63
2022/05/19 02:01:17;;;;;;;0.63;0.63;;;;;;;10.03;66.13;100758.44;4976107;28;20405;-63
2022/05/19 02:03:54;;;;;;;0.50;0.50;;;;;;;10.00;66.79;100768.63;4975784;28;20110;-64
2022/05/19 02:06:31;;;;;;;0.43;0.43;;;;;;;10.02;66.10;100761.84;4975816;28;20047;-64
2022/05/19 02:09:04;;;;;;;0.60;0.60;;;;;;;10.04;66.17;100765.28;4975696;28;20065;-64
2022/05/19 02:11:36;;;;;;;0.50;0.50;;;;;;;10.03;65.95;100768.66;4975328;28;20054;-63
2022/05/19 02:14:14;;;;;;;0.40;0.40;;;;;;;10.02;65.84;100772.03;4976008;28;20125;-63
2022/05/19 02:16:46;;;;;;;0.50;0.50;;;;;;;10.05;66.00;100772.13;4975956;28;20448;-62
2022/05/19 02:19:27;;;;;;;0.60;0.60;;;;;;;10.05;65.59;100772.13;4975600;28;20054;-63
2022/05/19 02:21:56;;;;;;;0.40;0.40;;;;;;;10.02;65.99;100772.03;4975629;28;20633;-63
2022/05/19 02:24:27;;;;;;;0.45;0.45;;;;;;;9.99;65.60;100771.97;4975773;28;20042;-62
2022/05/19 02:26:56;;;;;;;1.33;1.23;;;;;;;9.91;66.53;100778.66;4975997;28;20055;-62
2022/05/19 02:29:30;;;;;;;0.40;0.40;;;;;;;9.85;66.17;100763.22;4975720;28;20054;-64
2022/05/19 02:31:59;;;;;;;0.50;0.50;;;;;;;9.82;66.93;100775.88;4975337;28;20051;-63
2022/05/19 02:34:27;;;;;;;0.45;0.45;;;;;;;9.82;66.79;100773.34;4975572;28;20042;-63
2022/05/19 02:36:57;;;;;;;0.57;0.57;;;;;;;9.79;66.17;100765.66;4975545;28;20453;-64
2022/05/19 02:39:32;;;;;;;0.50;0.50;;;;;;;9.79;66.10;100763.09;4975532;28;20046;-64
2022/05/19 02:42:00;;;;;;;1.15;0.80;;;;;;;9.81;66.05;100764.00;4975371;28;20047;-63
2022/05/19 02:44:31;;;;;;;0.50;0.50;;;;;;;9.64;66.88;100762.78;4975441;28;20525;-63
2022/05/19 02:47:03;;;;;;;0.45;0.45;;;;;;;9.62;66.97;100764.44;4975114;28;20061;-63
2022/05/19 02:49:32;;;;;;;0.32;0.32;;;;;;;9.53;67.01;100769.34;4975367;28;20089;-63
2022/05/19 02:52:01;;;;;;;0.40;0.40;;;;;;;9.53;67.45;100765.09;4975297;28;20047;-63
2022/05/19 02:54:30;;;;;;;0.38;0.38;;;;;;;9.56;67.75;100769.41;4974895;28;20051;-64
2022/05/19 02:56:59;;;;;;;0.55;0.55;;;;;;;9.42;67.67;100767.44;4975502;28;20047;-63
2022/05/19 02:59:30;;;;;;;0.37;0.37;;;;;;;9.49;67.30;100772.66;4974157;28;20138;-62
2022/05/19 03:02:03;;;;;;;2.63;0.90;;;;;;;9.37;67.87;100781.78;4974900;28;20837;-63
2022/05/19 03:04:33;;;;;;;0.45;0.45;;;;;;;9.11;67.37;100770.16;4974812;28;20058;-63
2022/05/19 03:07:06;;;;;;;0.40;0.40;;;;;;;8.82;68.51;100771.16;4975108;28;20079;-62
2022/05/19 03:09:36;;;;;;;1.20;1.10;;;;;;;8.86;69.36;100775.47;4957609;28;20061;-63
2022/05/19 03:12:07;;;;;;;0.40;0.40;;;;;;;8.75;69.27;100784.56;4974483;28;20051;-62
2022/05/19 03:14:39;;;;;;;0.80;0.80;;;;;;;8.74;69.54;100780.28;4974677;28;20504;-62
2022/05/19 03:17:16;;;;;;;0.68;0.68;;;;;;;8.57;70.43;100784.09;4974708;28;20093;-63
2022/05/19 03:19:45;;;;;;;0.40;0.40;;;;;;;8.46;70.58;100782.97;4975039;28;20449;-63
2022/05/19 03:22:14;;;;;;;0.40;0.40;;;;;;;8.39;69.88;100792.16;4974594;28;20042;-64
2022/05/19 03:24:43;;;;;;;0.30;0.30;;;;;;;8.51;70.22;100786.50;4974855;28;20046;-64
2022/05/19 03:27:12;;;;;;;0.38;0.38;;;;;;;8.35;71.02;100764.88;4974625;28;20053;-62
2022/05/19 03:29:41;;;;;;;0.50;0.50;;;;;;;8.67;70.58;100793.69;4974561;28;20058;-64
2022/05/19 03:32:11;;;;;;;1.33;1.23;;;;;;;8.85;70.43;100786.50;4974891;28;20461;-63
2022/05/19 03:34:41;;;;;;;1.58;1.35;;;;;;;9.03;70.40;100792.03;4974530;28;20065;-63
2022/05/19 03:37:15;;;;;;;7.15;1.77;;;;;;;9.20;69.69;100789.84;4974455;28;20062;-62
2022/05/19 03:39:45;;;;;;;3.65;1.77;;;;;;;9.32;69.30;100780.81;4974488;28;20059;-64
2022/05/19 03:42:16;;;;;;;0.50;0.50;;;;;;;9.41;68.37;100786.09;4974810;28;20057;-64
2022/05/19 03:44:46;;;;;;;0.40;0.40;;;;;;;9.49;68.02;100788.81;4957476;28;20149;-63
2022/05/19 03:47:16;;;;;;;0.50;0.50;;;;;;;9.48;68.77;100786.25;4974759;28;20133;-62
2022/05/19 03:49:49;;;;;;;0.50;0.50;;;;;;;9.57;68.00;100792.41;4975060;28;20381;-62
2022/05/19 03:52:18;;;;;;;0.60;0.50;;;;;;;9.66;67.71;100802.78;4974686;28;20475;-62
2022/05/19 03:54:49;;;;;;;0.40;0.40;;;;;;;9.34;67.43;100735.84;4974221;28;20058;-63
2022/05/19 03:57:21;;;;;;;1.48;1.13;;;;;;;9.79;66.78;100793.69;4974333;28;20050;-64
2022/05/19 03:59:50;;;;;;;1.83;0.60;;;;;;;9.86;66.96;100793.00;4957728;28;20050;-62
2022/05/19 04:02:28;;;;;;;0.40;0.40;;;;;;;9.88;66.87;100793.88;4974280;28;20074;-64
2022/05/19 04:05:03;;;;;;;0.40;0.40;;;;;;;9.74;66.18;100754.50;4974270;28;20050;-64
2022/05/19 04:07:32;;;;;;;0.30;0.30;;;;;;;10.06;66.43;100796.78;4974309;28;20073;-62
2022/05/19 04:10:12;;;;;;;0.50;0.50;;;;;;;10.15;65.99;100801.25;4974344;28;20187;-64
2022/05/19 04:12:44;;;;;;;;;;;;;;;10.22;65.66;100800.53;4978139;28;20059;-63
2022/05/19 04:15:13;;;;;;;0.43;0.43;;;;;;;10.27;65.54;100799.75;4978130;28;20291;-63
2022/05/19 04:17:47;;;;;;;0.40;0.40;;;;;;;10.40;64.84;100798.28;4977802;28;20055;-62
2022/05/19 04:20:16;;;;;;;1.98;1.85;;;;;;;10.49;64.46;100801.88;4977753;28;20051;-64
2022/05/19 04:22:45;;;;;;;0.45;0.45;;;;;;;10.62;64.94;100793.59;4977637;28;20105;-62
2022/05/19 04:25:15;;;;;;;0.57;0.57;;;;;;;10.74;64.80;100792.94;4977915;28;20507;-64
2022/05/19 04:27:44;;;;;;;1.37;1.07;;;;;;;10.90;64.38;100788.91;4977904;28;20051;-64
2022/05/19 04:30:25;;;;;;;0.50;0.50;;;;;;;10.98;63.99;100792.47;4977888;28;20038;-62
2022/05/19 04:32:59;;;;;;;2.35;2.15;;;;;;;10.94;63.29;100790.69;4977846;28;20054;-64
2022/05/19 04:35:32;;;;;;;0.52;0.52;;;;;;;11.01;63.17;100789.97;4977539;28;20070;-63
2022/05/19 04:38:07;;;;;;;0.70;0.70;;;;;;;11.07;63.23;100782.38;4977701;28;20428;-64
2022/05/19 04:40:40;;;;;;;0.50;0.50;;;;;;;11.29;63.13;100789.53;4960347;28;20059;-63
2022/05/19 04:43:19;;;;;;;0.50;0.50;;;;;;;11.47;62.78;100783.81;4977257;28;20106;-65
2022/05/19 04:45:49;;;;;;;0.40;0.40;;;;;;;11.66;61.91;100796.00;4960098;28;20079;-65
2022/05/19 04:48:27;;;;;;;0.60;0.60;;;;;;;11.83;61.34;100795.38;4977556;28;20038;-65
2022/05/19 04:51:00;;;;;;;0.57;0.57;;;;;;;11.93;60.91;100797.22;4977497;28;20378;-65
2022/05/19 04:53:29;;;;;;;0.57;0.57;;;;;;;12.04;60.82;100800.75;4977146;28;20047;-63
2022/05/19 04:55:58;;;;;;;0.45;0.45;;;;;;;12.01;60.38;100770.03;4977927;28;20046;-63
2022/05/19 04:58:31;;;;;;;0.50;0.50;;;;;;;12.27;60.24;100797.56;4977245;28;20126;-63
2022/05/19 05:01:00;;;;;;;1.23;1.13;;;;;;;12.39;60.17;100795.13;4976961;28;20082;-64
2022/05/19 05:03:30;;;;;;;0.60;0.60;;;;;;;12.47;59.85;100788.41;4976764;28;20059;-63
2022/05/19 05:05:59;;;;;;;1.00;0.80;;;;;;;12.63;59.85;100797.94;4959983;28;20624;-63
2022/05/19 05:08:28;;;;;;;0.40;0.40;;;;;;;12.75;59.91;100793.78;4977084;28;20047;-65
2022/05/19 05:11:02;;;;;;;0.75;0.70;;;;;;;12.90;59.90;100798.16;4976616;28;20055;-62
2022/05/19 05:13:31;;;;;;;0.47;0.47;;;;;;;13.07;59.80;100806.88;4976837;28;20508;-65
2022/05/19 05:16:00;;;;;;;0.93;0.90;;;;;;;13.17;60.05;100806.06;4976980;28;20453;-65
2022/05/19 05:18:31;;;;;;;0.73;0.70;;;;;;;13.30;59.87;100809.59;4976553;28;20078;-64
2022/05/19 05:21:05;;;;;;;0.60;0.60;;;;;;;13.40;59.41;100808.78;4976649;28;20047;-65
2022/05/19 05:23:34;;;;;;;1.60;1.23;;;;;;;13.51;58.89;100808.88;4975992;28;20051;-66
2022/05/19 05:26:05;;;;;;;0.70;0.70;;;;;;;13.59;58.75;100810.63;4976820;28;20047;-63
2022/05/19 05:28:38;;;;;;;0.50;0.50;;;;;;;13.76;58.78;100820.97;4976457;28;20062;-63
2022/05/19 05:31:07;;;;;;;0.57;0.57;;;;;;;13.92;58.87;100822.72;4976453;28;20054;-65
2022/05/19 05:33:37;;;;;;;2.05;1.75;;;;;;;14.03;58.67;100818.50;4976421;28;20089;-65
2022/05/19 05:36:09;;;;;;;0.70;0.70;;;;;;;14.15;58.57;100815.13;4976387;28;20059;-65
2022/05/19 05:38:38;;;;;;;0.57;0.57;;;;;;;14.33;58.60;100816.06;4976497;28;20058;-64
2022/05/19 05:41:11;;;;;;;0.50;0.50;;;;;;;14.42;58.22;100816.06;4976199;28;20061;-64
2022/05/19 05:43:43;;;;;;;0.70;0.70;;;;;;;14.62;57.82;100819.53;4976215;28;20523;-63
2022/05/19 05:46:14;;;;;;;1.42;1.33;;;;;;;14.71;57.78;100824.69;4976177;28;20591;-64
2022/05/19 05:48:46;;;;;;;0.70;0.70;;;;;;;14.91;57.05;100821.25;4976092;28;20548;-64
2022/05/19 05:51:17;;;;;;;0.63;0.63;;;;;;;15.03;56.72;100821.25;4976091;28;20042;-64
2022/05/19 05:53:47;;;;;;;0.63;0.63;;;;;;;15.17;57.04;100824.66;4976023;28;20059;-64
2022/05/19 05:56:17;;;;;;;;;;;;;;;15.24;57.11;100816.09;4976728;28;20119;-64
2022/05/19 05:58:49;;;;;;;;;;;;;;;15.24;56.26;100826.38;4976645;28;19922;-65
2022/05/19 06:01:29;;;;;;;1.42;1.02;;;;;;;15.24;56.09;100823.81;4975925;28;19929;-63
2022/05/19 06:04:18;;;;;;;4.13;1.38;;;;;;;15.39;55.63;100823.78;4975847;28;20051;-63
2022/05/19 06:06:47;;;;;;;0.60;0.60;;;;;;;15.49;55.56;100820.38;4975858;28;20058;-63
2022/05/19 06:09:17;;;;;;;0.50;0.50;;;;;;;15.69;55.07;100831.44;4975982;28;20281;-64
2022/05/19 06:11:46;;;;;;;0.98;0.90;;;;;;;15.83;55.44;100829.72;4975476;28;20109;-65
2022/05/19 06:14:15;;;;;;;0.83;0.83;;;;;;;15.78;55.41;100834.03;4975926;28;20055;-64
2022/05/19 06:16:44;;;;;;;1.27;1.17;;;;;;;15.84;54.73;100826.25;4975883;28;20409;-63
2022/05/19 06:19:13;;;;;;;0.55;0.55;;;;;;;16.07;55.12;100834.75;4975337;28;20051;-63
2022/05/19 06:21:47;;;;;;;0.43;0.43;;;;;;;16.24;55.00;100832.09;4975504;28;20058;-62
2022/05/19 06:24:16;;;;;;;3.13;0.70;;;;;;;16.35;54.66;100834.59;4975644;28;20081;-63
2022/05/19 06:26:45;;;;;;;0.70;0.70;;;;;;;16.27;53.83;100821.75;4975741;28;20051;-63
2022/05/19 06:29:15;;;;;;;0.60;0.60;;;;;;;16.36;53.35;100833.75;4975283;28;20059;-63
2022/05/19 06:31:44;;;;;;;0.77;0.77;;;;;;;16.56;53.06;100829.34;4975607;28;20065;-64
2022/05/19 06:34:13;;;;;;;0.85;0.82;;;;;;;16.64;53.49;100831.03;4975544;28;20057;-65
2022/05/19 06:36:49;;;;;;;0.80;0.80;;;;;;;16.79;53.89;100844.66;4975281;28;20065;-64
2022/05/19 06:39:21;;;;;;;0.50;0.50;;;;;;;16.99;53.18;100835.91;4975210;28;20058;-64
2022/05/19 06:44:31;;;;;;;0.53;0.53;;;;;;;16.97;51.66;100832.47;4975096;28;20058;-63
2022/05/19 06:47:01;;;;;;;0.82;0.82;;;;;;;17.12;50.63;100827.19;4975095;28;20077;-63
2022/05/19 06:49:31;;;;;;;0.60;0.60;;;;;;;17.44;50.73;100834.63;4975364;28;20061;-64
2022/05/19 06:52:02;;;;;;;0.82;0.82;;;;;;;17.54;49.96;100830.28;4975345;28;20054;-65
2022/05/19 06:54:31;;;;;;;0.70;0.70;;;;;;;17.69;50.14;100830.09;4975005;28;20043;-63
2022/05/19 06:57:01;;;;;;;1.58;1.48;;;;;;;17.77;50.05;100834.31;4974958;28;20050;-63
2022/05/19 06:59:40;;;;;;;0.80;0.80;;;;;;;17.85;50.12;100841.97;4975465;28;20142;-64
2022/05/19 07:02:09;;;;;;;0.50;0.50;;;;;;;17.94;49.98;100827.22;4975164;28;20101;-64
2022/05/19 07:04:40;;;;;;;0.60;0.60;;;;;;;18.07;49.16;100833.91;4974827;28;20050;-63
2022/05/19 07:07:11;;;;;;;1.35;0.75;;;;;;;18.04;48.27;100828.78;4974844;28;20142;-63
2022/05/19 07:09:42;;;;;;;0.98;0.88;;;;;;;17.88;48.48;100827.28;4974909;28;20075;-63
2022/05/19 07:12:12;;;;;;;9.90;1.73;;;;;;;17.88;47.92;100827.28;4974326;28;20060;-64
2022/05/19 07:14:41;;;;;;;2.03;1.50;;;;;;;18.04;47.52;100817.63;4975276;28;20082;-63
2022/05/19 07:17:10;;;;;;;;;;;;;;;18.16;47.97;100817.47;4975088;28;20113;-62
2022/05/19 07:22:22;;;;;;;0.65;0.65;;;;;;;17.98;46.09;100817.69;4974645;28;20504;-62
2022/05/19 07:24:52;;;;;;;0.40;0.40;;;;;;;17.84;45.89;100820.44;4974533;28;20051;-63
2022/05/19 07:27:24;;;;;;;0.60;0.60;;;;;;;17.74;46.25;100816.25;4974929;28;20413;-62
2022/05/19 07:29:56;;;;;;;0.70;0.70;;;;;;;17.90;46.69;100815.19;4975086;28;20054;-63
2022/05/19 07:32:29;;;;;;;1.35;1.00;;;;;;;17.75;44.94;100768.03;4975199;28;20457;-64
2022/05/19 07:34:58;;;;;;;0.80;0.80;;;;;;;18.16;44.28;100812.28;4974475;28;20063;-65
2022/05/19 07:37:28;;;;;;;0.70;0.70;;;;;;;18.18;44.26;100818.28;4974578;28;20054;-63
2022/05/19 07:39:58;;;;;;;0.93;0.93;;;;;;;18.29;44.49;100818.97;4974586;28;20082;-62
2022/05/19 07:42:28;;;;;;;0.50;0.50;;;;;;;18.25;44.16;100819.91;4974425;28;20097;-64
2022/05/19 07:44:57;;;;;;;0.50;0.50;;;;;;;18.34;43.96;100814.59;4974372;28;20098;-62
2022/05/19 07:47:29;;;;;;;0.68;0.68;;;;;;;18.54;44.21;100807.47;4977917;28;20089;-64
2022/05/19 07:49:58;;;;;;;0.50;0.50;;;;;;;18.79;44.06;100809.66;4978370;28;20481;-64
2022/05/19 07:52:38;;;;;;;0.55;0.55;;;;;;;18.81;44.03;100807.91;4978400;28;20071;-65
2022/05/19 07:55:09;;;;;;;0.52;0.52;;;;;;;18.76;44.07;100807.13;4978163;28;20054;-63
2022/05/19 07:57:39;;;;;;;0.40;0.40;;;;;;;19.02;44.96;100808.41;4978177;28;20050;-64
2022/05/19 08:00:10;;;;;;;0.68;0.68;;;;;;;19.12;43.99;100809.09;4978421;28;20047;-63
2022/05/19 08:02:43;;;;;;;1.20;1.08;;;;;;;19.23;43.54;100786.44;4978065;28;20054;-64
2022/05/19 08:05:12;;;;;;;0.70;0.70;;;;;;;19.55;42.79;100810.06;4977663;28;20110;-63
2022/05/19 08:07:43;;;;;;;0.93;0.93;;;;;;;19.64;42.30;100814.19;4978236;28;20156;-63
2022/05/19 08:10:26;;;;;;;0.45;0.45;;;;;;;19.70;42.27;100778.66;4960929;28;20754;-64
2022/05/19 08:15:48;;;;;;;0.60;0.60;;;;;;;20.14;41.79;100819.19;4978020;28;20062;-63
2022/05/19 08:18:19;;;;;;;0.55;0.55;;;;;;;20.15;41.04;100822.66;4977970;28;20055;-63
2022/05/19 08:20:50;;;;;;;0.75;0.75;;;;;;;20.12;40.50;100817.50;4977801;28;20054;-62
2022/05/19 08:23:24;;;;;;;0.40;0.40;;;;;;;19.93;40.21;100775.59;4977972;28;20445;-64
2022/05/19 08:25:53;;;;;;;1.73;1.63;;;;;;;20.20;41.16;100820.81;4977602;28;20070;-65
2022/05/19 08:28:29;;;;;;;0.63;0.52;;;;;;;20.19;40.23;100813.91;4977876;28;20074;-66
2022/05/19 08:31:02;;;;;;;6.70;0.93;;;;;;;20.30;39.80;100811.97;4978161;28;20396;-64
2022/05/19 08:33:31;;;;;;;0.70;0.70;;;;;;;20.49;40.91;100803.72;4977817;28;20130;-65
2022/05/19 08:36:00;;;;;;;;;;;;;;;20.42;39.81;100806.53;4978403;28;20054;-63
2022/05/19 08:38:43;;;;;;;0.88;0.73;;;;;;;20.37;39.70;100798.81;4977843;28;20376;-62
2022/05/19 08:41:19;;;;;;;0.75;0.73;;;;;;;20.47;39.21;100802.03;4977647;28;20055;-64
2022/05/19 08:43:52;;;;;;;0.50;0.50;;;;;;;20.27;39.48;100770.56;4977304;28;20057;-64
2022/05/19 08:46:29;;;;;;;0.45;0.45;;;;;;;20.31;38.68;100790.31;4977564;28;20046;-63
2022/05/19 08:49:03;;;;;;;0.40;0.40;;;;;;;20.35;38.08;100789.34;4977631;28;20073;-65
2022/05/19 08:51:56;;;;;;;0.40;0.40;;;;;;;20.51;37.56;100786.41;4977183;28;20382;-65
2022/05/19 08:54:31;;;;;;;0.50;0.50;;;;;;;20.57;37.10;100785.38;4977046;28;20065;-63
2022/05/19 08:57:06;;;;;;;0.60;0.60;;;;;;;20.73;36.89;100781.56;4976481;28;20073;-65
2022/05/19 08:59:46;;;;;;;0.68;0.50;;;;;;;20.81;36.30;100768.38;4976911;28;20057;-66
2022/05/19 09:02:22;;;;;;;0.70;0.70;;;;;;;20.90;35.28;100779.38;4977326;28;20060;-66
2022/05/19 09:05:02;;;;;;;0.43;0.43;;;;;;;21.01;36.00;100777.38;4976931;28;20116;-64
2022/05/19 09:10:32;;;;;;;0.68;0.68;;;;;;;21.47;36.89;100777.03;4977462;28;20405;-63
2022/05/19 09:13:12;;;;;;;0.50;0.50;;;;;;;21.67;36.88;100773.84;4976580;28;20058;-63
2022/05/19 09:15:41;;;;;;;0.60;0.60;;;;;;;21.71;36.21;100778.06;4976811;28;20051;-63
2022/05/19 09:18:16;;;;;;;0.80;0.80;;;;;;;21.69;35.92;100782.47;4976906;28;20074;-65
2022/05/19 09:20:51;;;;;;;0.85;0.73;;;;;;;21.64;35.79;100773.94;4976690;28;20059;-64
2022/05/19 09:23:21;;;;;;;1.10;0.70;;;;;;;21.66;35.67;100778.22;4976745;28;20477;-64
2022/05/19 09:25:59;;;;;;;0.60;0.60;;;;;;;21.74;35.20;100770.19;4976739;28;20047;-64
2022/05/19 09:28:33;;;;;;;0.43;0.43;;;;;;;21.70;34.99;100784.16;4976601;28;20043;-63
2022/05/19 09:31:43;;;;;;;0.73;0.73;;;;;;;21.37;34.35;100780.75;4976728;28;20409;-64
2022/05/19 09:34:15;;;;;;;0.57;0.57;;;;;;;21.24;34.44;100780.22;4976643;28;20049;-63
2022/05/19 09:37:02;;;;;;;0.60;0.60;;;;;;;21.42;35.24;100783.22;4976396;28;20117;-63
2022/05/19 09:39:35;;;;;;;0.50;0.50;;;;;;;21.29;34.49;100752.41;4959269;28;20061;-66
2022/05/19 09:45:03;;;;;;;0.55;0.55;;;;;;;21.41;34.39;100761.59;4974599;28;20070;-64
2022/05/19 09:47:33;;;;;;;;;;;;;;;21.47;33.20;100755.38;4976483;28;20081;-64
2022/05/19 09:50:07;;;;;;;0.70;0.70;;;;;;;21.58;33.41;100751.56;4976462;28;19925;-65
2022/05/19 09:52:36;;;;;;;0.60;0.60;;;;;;;21.68;34.55;100759.97;4976348;28;20065;-64
2022/05/19 09:55:08;;;;;;;0.50;0.50;;;;;;;21.72;34.53;100757.22;4976300;28;20039;-63
2022/05/19 09:57:53;;;;;;;0.50;0.50;;;;;;;21.83;34.41;100752.59;4976028;28;20047;-65
2022/05/19 10:00:38;;;;;;;0.50;0.50;;;;;;;21.91;34.36;100752.38;4976192;28;20154;-64
2022/05/19 10:03:18;;;;;;;0.65;0.65;;;;;;;21.87;34.31;100748.16;4975908;28;20071;-63
2022/05/19 10:05:50;;;;;;;0.60;0.60;;;;;;;21.99;34.35;100742.59;4975749;28;20051;-63
2022/05/19 10:08:24;;;;;;;0.45;0.45;;;;;;;22.13;33.55;100743.03;4975324;28;20113;-64
2022/05/19 10:11:02;;;;;;;0.70;0.70;;;;;;;22.12;32.27;100736.13;4975813;28;20055;-63
2022/05/19 10:13:40;;;;;;;2.70;0.80;;;;;;;22.14;32.07;100726.53;4975651;28;20047;-64
2022/05/19 10:16:20;;;;;;;0.90;0.70;;;;;;;22.20;33.14;100718.53;4976311;28;20054;-65
2022/05/19 10:19:47;;;;;;;0.60;0.60;;;;;;;22.47;32.63;100716.78;4975923;28;20141;-66
2022/05/19 10:22:45;;;;;;;0.50;0.50;;;;;;;22.60;32.47;100723.31;4916133;29;20056;-63
2022/05/19 10:25:27;;;;;;;0.40;0.40;;;;;;;22.57;32.24;100713.84;4916112;29;20044;-64
2022/05/19 10:31:05;;;;;;;0.60;0.60;;;;;;;22.78;31.75;100701.00;4915887;29;20474;-64
2022/05/19 10:34:04;;;;;;;0.80;0.80;;;;;;;22.71;31.39;100704.72;4916045;29;20056;-64
2022/05/19 10:36:42;;;;;;;0.57;0.57;;;;;;;22.60;31.71;100687.69;4915828;29;20138;-63
2022/05/19 10:39:36;;;;;;;0.40;0.40;;;;;;;22.77;30.81;100699.34;4915775;29;20055;-63
2022/05/19 10:42:14;;;;;;;0.75;0.73;;;;;;;22.83;30.46;100692.16;4915101;29;20066;-65
2022/05/19 10:45:08;;;;;;;0.50;0.50;;;;;;;22.97;29.75;100696.88;4915738;29;20459;-63
2022/05/19 10:47:52;;;;;;;0.40;0.40;;;;;;;23.07;30.77;100687.84;4973843;28;20050;-64
2022/05/19 10:50:30;;;;;;;0.40;0.40;;;;;;;23.24;30.27;100680.25;4975151;28;20445;-63
2022/05/19 10:53:26;;;;;;;0.90;0.90;;;;;;;23.25;29.46;100676.75;4975346;28;20050;-64
2022/05/19 10:56:10;;;;;;;0.50;0.50;;;;;;;23.39;30.20;100673.66;4972904;28;20093;-63
2022/05/19 10:58:59;;;;;;;1.45;1.05;;;;;;;23.41;30.21;100667.50;4975215;28;20142;-65
2022/05/19 11:01:53;;;;;;;1.05;0.75;;;;;;;23.39;30.20;100653.69;4972607;28;20055;-62
2022/05/19 11:04:43;;;;;;;1.25;1.15;;;;;;;23.36;31.09;100658.13;4974850;28;20540;-62
2022/05/19 11:07:38;;;;;;;1.95;0.63;;;;;;;23.45;30.10;100648.22;4974755;28;20039;-66
2022/05/19 11:10:20;;;;;;;0.40;0.40;;;;;;;23.41;29.82;100633.63;4974481;28;20046;-62
2022/05/19 11:13:04;;;;;;;0.65;0.55;;;;;;;23.57;30.22;100642.53;4974465;28;20114;-64
2022/05/19 11:15:41;;;;;;;2.75;0.60;;;;;;;23.63;30.67;100637.09;4974821;28;20505;-64
2022/05/19 11:18:14;;;;;;;0.43;0.43;;;;;;;23.63;30.14;100637.09;4974753;28;20142;-67
2022/05/19 11:21:08;;;;;;;0.50;0.50;;;;;;;23.65;29.80;100614.44;4973972;28;20054;-65
2022/05/19 11:23:49;;;;;;;0.50;0.50;;;;;;;23.81;28.47;100630.28;4974513;28;20416;-63
2022/05/19 11:26:27;;;;;;;0.40;0.40;;;;;;;23.58;27.83;100576.47;4974877;28;20057;-64
2022/05/19 11:29:05;;;;;;;0.68;0.68;;;;;;;23.91;28.86;100624.66;4974584;28;20058;-64
2022/05/19 11:31:42;;;;;;;0.40;0.40;;;;;;;23.93;27.85;100624.59;4974658;28;20043;-64
2022/05/19 11:34:20;;;;;;;9.88;0.85;;;;;;;23.98;28.03;100613.06;4974817;28;20055;-64
2022/05/19 11:36:56;;;;;;;0.60;0.60;;;;;;;23.96;28.00;100598.38;4974477;28;20050;-64
2022/05/19 11:39:32;;;;;;;0.50;0.50;;;;;;;24.15;28.44;100608.94;4974892;28;20043;-64
2022/05/19 11:42:17;;;;;;;0.40;0.40;;;;;;;24.26;28.64;100617.19;4974548;28;20043;-65
2022/05/19 11:44:47;;;;;;;1.63;1.30;;;;;;;24.25;27.16;100615.47;4974444;28;20453;-64
2022/05/19 11:55:42;;;;;;;0.43;0.43;;;;;;;24.47;27.50;100598.00;4974695;28;20453;-63
2022/05/19 11:58:20;;;;;;;1.00;0.80;;;;;;;24.54;27.58;100591.59;4974316;28;20059;-65
2022/05/19 12:00:57;;;;;;;0.40;0.40;;;;;;;24.63;28.53;100596.41;4974690;28;20051;-65
2022/05/19 12:03:32;;;;;;;0.50;0.50;;;;;;;24.78;28.03;100590.56;4974425;28;20059;-65
2022/05/19 12:06:04;;;;;;;0.50;0.50;;;;;;;24.73;27.34;100589.88;4974327;28;20130;-66
2022/05/19 12:08:38;;;;;;;0.40;0.40;;;;;;;24.73;27.26;100597.72;4974103;28;20043;-63
2022/05/19 12:11:13;;;;;;;0.50;0.50;;;;;;;24.66;27.66;100601.50;4974033;28;20121;-63
2022/05/19 12:13:48;;;;;;;0.40;0.40;;;;;;;24.64;26.41;100593.72;4974221;28;20051;-65
2022/05/19 12:16:26;;;;;;;0.55;0.55;;;;;;;24.77;26.61;100578.41;4974791;28;20051;-65
2022/05/19 12:19:05;;;;;;;0.40;0.40;;;;;;;24.98;27.48;100577.44;4956987;28;20133;-65
2022/05/19 12:21:59;;;;;;;0.43;0.43;;;;;;;25.04;26.51;100582.41;4974161;28;20082;-64
2022/05/19 12:24:33;;;;;;;0.50;0.50;;;;;;;25.00;25.79;100574.78;4974478;28;20150;-65
2022/05/19 12:27:11;;;;;;;0.55;0.55;;;;;;;24.93;25.71;100584.63;4974310;28;20489;-66
2022/05/19 12:29:44;;;;;;;0.40;0.40;;;;;;;24.78;25.12;100572.28;4974132;28;20058;-66